Time;durP1;ratioP1;P1;durP2;ratioP2;P2;SDS_P1;SDS_P2;PMS_P1;PMS_P2;Temp;Humidity;BMP_temperature;BMP_pressure;BME280_temperature;BME280_humidity;BME280_pressure;Samples;Min_cycle;Max_cycle;Signal;HPM_P1;HPM_P2
2021/03/29 00:00:33;;;;;;;7.78;5.07;;;;;;;11.20;51.11;100268.03;4939457;28;20419;-89
2021/03/29 00:03:00;;;;;;;6.53;4.65;;;;;;;11.20;51.27;100268.03;4954842;28;20029;-92
2021/03/29 00:05:29;;;;;;;6.28;4.43;;;;;;;11.22;50.64;100273.94;4954250;28;20447;-90
2021/03/29 00:08:15;;;;;;;5.85;4.22;;;;;;;11.24;50.61;100269.13;4955053;28;20026;-92
2021/03/29 00:10:43;;;;;;;7.70;5.18;;;;;;;11.20;50.69;100274.22;4953589;28;20030;-89
2021/03/29 00:13:09;;;;;;;7.43;4.93;;;;;;;11.17;50.49;100272.00;4927713;29;20090;-87
2021/03/29 00:15:39;;;;;;;6.43;4.25;;;;;;;11.16;49.99;100267.72;4935749;29;20106;-84
2021/03/29 00:18:10;;;;;;;9.30;4.55;;;;;;;11.19;50.30;100272.59;4935577;29;20034;-84
2021/03/29 00:20:39;;;;;;;6.47;4.70;;;;;;;11.19;50.45;100274.44;4936068;28;20023;-85
2021/03/29 00:23:05;;;;;;;6.80;4.57;;;;;;;11.20;50.18;100284.91;4953913;28;20496;-84
2021/03/29 00:25:32;;;;;;;6.65;4.40;;;;;;;11.23;50.35;100285.47;4954972;28;20117;-84
2021/03/29 00:27:59;;;;;;;6.72;4.65;;;;;;;11.20;50.03;100281.41;4954702;28;20037;-88
2021/03/29 00:30:31;;;;;;;7.53;4.63;;;;;;;11.22;50.24;100287.34;4954645;28;20097;-83
2021/03/29 00:32:57;;;;;;;8.18;4.90;;;;;;;11.24;50.18;100287.09;4954703;28;20070;-85
2021/03/29 00:35:25;;;;;;;7.70;4.60;;;;;;;11.23;50.80;100286.28;4954946;28;20026;-87
2021/03/29 00:37:55;;;;;;;7.22;5.07;;;;;;;11.19;50.87;100283.28;4954230;28;20026;-89
2021/03/29 00:40:21;;;;;;;7.72;5.55;;;;;;;11.15;50.93;100278.69;4952675;28;20042;-86
2021/03/29 00:42:51;;;;;;;7.07;4.55;;;;;;;11.14;51.21;100285.88;4953415;28;20514;-80
2021/03/29 00:45:19;;;;;;;9.60;4.55;;;;;;;11.11;51.27;100280.22;4954690;28;20058;-80
2021/03/29 00:47:46;;;;;;;6.97;5.03;;;;;;;11.10;51.39;100276.75;4954431;28;20026;-80
2021/03/29 00:50:16;;;;;;;7.82;4.90;;;;;;;11.09;51.61;100285.03;4954522;28;20050;-81
2021/03/29 00:52:43;;;;;;;8.10;5.45;;;;;;;11.00;51.56;100277.44;4953867;28;20041;-81
2021/03/29 00:55:10;;;;;;;5.82;4.35;;;;;;;10.98;52.06;100286.78;4942034;28;20126;-80
2021/03/29 00:57:38;;;;;;;9.20;4.97;;;;;;;10.95;51.99;100287.25;4954686;28;20570;-80
2021/03/29 01:00:26;;;;;;;7.95;5.90;;;;;;;10.94;51.89;100283.78;4954396;28;20125;-79
2021/03/29 01:02:52;;;;;;;6.13;4.78;;;;;;;10.89;52.06;100281.03;4954199;28;20062;-79
2021/03/29 01:05:20;;;;;;;6.82;4.60;;;;;;;10.85;51.74;100280.72;4954608;28;20062;-80
2021/03/29 01:07:48;;;;;;;5.78;4.95;;;;;;;10.80;51.95;100285.19;4953263;28;20033;-79
2021/03/29 01:10:14;;;;;;;6.95;4.40;;;;;;;10.79;51.72;100288.91;4948355;28;20039;-78
2021/03/29 01:12:41;;;;;;;6.15;4.75;;;;;;;10.74;51.75;100289.66;4935423;29;20034;-79
2021/03/29 01:15:13;;;;;;;6.93;4.68;;;;;;;10.69;52.11;100293.09;4935073;29;20019;-79
2021/03/29 01:17:41;;;;;;;7.95;4.78;;;;;;;10.68;52.08;100294.13;4945013;28;20118;-78
2021/03/29 01:20:17;;;;;;;4.90;4.40;;;;;;;10.68;51.36;100298.66;4953870;28;20023;-78
2021/03/29 01:22:45;;;;;;;6.63;5.07;;;;;;;10.61;51.81;100300.69;4957317;28;20407;-78
2021/03/29 01:25:19;;;;;;;8.20;4.57;;;;;;;10.59;52.31;100297.47;4974331;28;20030;-78
2021/03/29 01:27:58;;;;;;;8.80;5.47;;;;;;;10.50;53.00;100297.09;4939340;29;20031;-79
2021/03/29 01:30:26;;;;;;;8.07;5.10;;;;;;;10.37;53.43;100311.56;4938818;29;20156;-80
2021/03/29 01:32:53;;;;;;;6.97;4.72;;;;;;;10.28;53.16;100304.97;4938807;29;20424;-80
2021/03/29 01:35:21;;;;;;;4.93;4.43;;;;;;;10.18;53.28;100308.28;4938742;29;20098;-80
2021/03/29 01:37:49;;;;;;;6.03;4.88;;;;;;;10.07;53.69;100305.47;4938624;29;20086;-79
2021/03/29 01:40:23;;;;;;;6.65;4.90;;;;;;;10.02;53.67;100315.25;4938547;29;20031;-80
2021/03/29 01:42:49;;;;;;;7.07;5.07;;;;;;;9.94;54.24;100309.22;4929899;28;20558;-80
2021/03/29 01:45:22;;;;;;;8.65;5.07;;;;;;;9.89;54.61;100311.03;4957379;28;20026;-81
2021/03/29 01:47:49;;;;;;;6.53;4.93;;;;;;;9.85;54.55;100325.91;4957229;28;20041;-80
2021/03/29 01:50:35;;;;;;;7.68;5.65;;;;;;;9.75;54.92;100314.00;4957376;28;20486;-82
2021/03/29 01:53:04;;;;;;;7.55;5.10;;;;;;;9.68;55.52;100317.84;4974744;28;20047;-82
2021/03/29 01:56:01;;;;;;;7.90;5.18;;;;;;;9.59;55.93;100312.06;4959379;28;20037;-82
2021/03/29 01:58:26;;;;;;;9.18;4.63;;;;;;;9.49;56.25;100312.69;4959120;29;20484;-82
2021/03/29 02:01:03;;;;;;;10.70;4.88;;;;;;;9.41;56.44;100313.03;4939415;28;20078;-79
2021/03/29 02:03:29;;;;;;;7.82;5.15;;;;;;;9.36;56.37;100318.28;4957606;28;20035;-80
2021/03/29 02:05:55;;;;;;;9.95;5.20;;;;;;;9.32;56.67;100312.59;4957406;28;20033;-80
2021/03/29 02:08:27;;;;;;;10.02;5.10;;;;;;;9.26;56.74;100314.38;4957710;28;20030;-80
2021/03/29 02:10:53;;;;;;;7.03;4.68;;;;;;;9.24;56.66;100315.63;4957224;28;20397;-80
2021/03/29 02:13:22;;;;;;;6.82;5.03;;;;;;;9.22;56.71;100310.53;4956591;28;20027;-80
2021/03/29 02:15:51;;;;;;;6.97;4.63;;;;;;;9.19;56.56;100313.69;4957678;28;20042;-81
2021/03/29 02:18:28;;;;;;;8.48;5.53;;;;;;;9.21;57.07;100311.59;4956143;28;20023;-81
2021/03/29 02:20:59;;;;;;;9.82;4.95;;;;;;;9.20;57.10;100309.97;4957511;28;20030;-80
2021/03/29 02:23:27;;;;;;;6.05;4.43;;;;;;;9.21;56.89;100314.25;4957532;28;20105;-81
2021/03/29 02:26:08;;;;;;;7.93;5.13;;;;;;;9.20;57.50;100315.28;4961393;28;20099;-86
2021/03/29 02:47:22;;;;;;;7.00;4.50;;;;;;;9.27;56.76;100313.31;4911188;29;20413;-85
2021/03/29 02:51:11;;;;;;;6.75;5.03;;;;;;;9.25;56.55;100307.41;4897535;29;20053;-83
2021/03/29 02:53:38;;;;;;;9.02;4.50;;;;;;;9.23;56.58;100300.69;4861690;29;20097;-80
2021/03/29 02:56:18;;;;;;;6.90;4.68;;;;;;;9.23;56.17;100300.69;4897196;29;20048;-80
2021/03/29 02:58:55;;;;;;;5.97;3.83;;;;;;;9.27;55.39;100307.19;4899248;29;20044;-83
2021/03/29 03:01:26;;;;;;;7.07;3.75;;;;;;;9.32;54.91;100303.81;4881905;29;20040;-82
2021/03/29 03:07:14;;;;;;;6.03;3.17;;;;;;;9.45;54.00;100309.66;4935021;29;20090;-81
2021/03/29 03:09:42;;;;;;;5.47;3.90;;;;;;;9.50;53.41;100303.63;4917486;29;20024;-81
2021/03/29 03:15:29;;;;;;;4.35;3.85;;;;;;;9.64;52.53;100311.34;4919613;29;20041;-86
2021/03/29 03:21:49;;;;;;;6.22;3.65;;;;;;;9.77;51.04;100319.88;4917641;29;20039;-89
2021/03/29 03:24:14;;;;;;;4.40;3.20;;;;;;;9.88;50.50;100326.22;4882416;29;20040;-86
2021/03/29 03:26:40;;;;;;;6.20;3.17;;;;;;;9.92;50.65;100327.38;4899894;29;20031;-87
2021/03/29 03:29:05;;;;;;;8.10;4.00;;;;;;;9.96;49.93;100321.53;4901392;29;20466;-83
2021/03/29 03:31:33;;;;;;;4.20;3.40;;;;;;;10.00;49.70;100323.50;4917340;29;20015;-83
2021/03/29 03:33:58;;;;;;;5.68;3.25;;;;;;;10.06;49.21;100321.75;4919439;29;20174;-80
2021/03/29 03:36:27;;;;;;;5.88;2.78;;;;;;;10.09;49.22;100324.75;4935641;29;20118;-80
2021/03/29 03:38:54;;;;;;;3.53;2.63;;;;;;;10.12;48.25;100330.63;4934252;29;20052;-81
2021/03/29 03:41:25;;;;;;;9.70;3.95;;;;;;;10.15;48.41;100335.53;4929270;29;20023;-81
2021/03/29 03:43:53;;;;;;;7.50;3.50;;;;;;;10.16;48.12;100337.94;4928931;29;20023;-80
2021/03/29 03:46:25;;;;;;;4.88;3.22;;;;;;;10.19;47.07;100339.31;4935345;29;20110;-80
2021/03/29 03:48:55;;;;;;;6.03;3.50;;;;;;;10.22;47.37;100338.84;4936306;29;20019;-80
2021/03/29 03:51:25;;;;;;;3.97;2.75;;;;;;;10.26;47.27;100342.66;4936476;28;20094;-80
2021/03/29 03:53:52;;;;;;;4.80;3.20;;;;;;;10.28;46.95;100340.56;4955477;28;20022;-87
2021/03/29 03:56:18;;;;;;;4.82;3.25;;;;;;;10.32;46.77;100347.03;4953685;28;20096;-92
2021/03/29 03:58:45;;;;;;;5.07;3.10;;;;;;;10.33;46.63;100347.84;4955616;28;20025;-88
2021/03/29 04:01:12;;;;;;;10.18;3.42;;;;;;;10.36;47.06;100358.91;4955076;28;20037;-87
2021/03/29 04:03:39;;;;;;;7.82;3.70;;;;;;;10.36;46.94;100352.72;4955284;28;20475;-91
2021/03/29 04:06:05;;;;;;;4.00;3.35;;;;;;;10.36;47.23;100352.72;4954709;28;20034;-86
2021/03/29 04:08:31;;;;;;;5.35;3.67;;;;;;;10.34;47.23;100355.63;4955136;28;20030;-87
2021/03/29 04:10:59;;;;;;;4.70;3.65;;;;;;;10.35;47.74;100359.09;4955270;28;20023;-88
2021/03/29 04:13:28;;;;;;;;;;;;;;;10.33;47.53;100361.22;4955145;28;20124;-89
2021/03/29 04:15:54;;;;;;;7.35;3.80;;;;;;;10.30;47.47;100367.88;4955051;28;20270;-87
2021/03/29 04:18:20;;;;;;;13.00;4.45;;;;;;;10.27;47.56;100371.00;4954764;28;20167;-82
2021/03/29 04:20:46;;;;;;;7.80;4.00;;;;;;;10.25;47.75;100365.91;4954039;28;20561;-87
2021/03/29 04:23:12;;;;;;;7.25;4.43;;;;;;;10.25;47.76;100368.59;4953782;28;20045;-83
2021/03/29 04:25:38;;;;;;;8.15;4.35;;;;;;;10.22;47.80;100369.06;4954446;28;20042;-83
2021/03/29 04:28:03;;;;;;;7.68;4.00;;;;;;;10.21;47.37;100372.78;4954293;28;20089;-84
2021/03/29 04:30:29;;;;;;;6.13;3.90;;;;;;;10.18;47.31;100377.78;4954322;28;20035;-83
2021/03/29 04:32:56;;;;;;;4.55;3.05;;;;;;;10.17;47.60;100370.84;4954132;28;20463;-85
2021/03/29 04:35:23;;;;;;;4.85;3.60;;;;;;;10.14;47.47;100369.44;4953733;28;20035;-81
2021/03/29 04:37:53;;;;;;;5.37;3.97;;;;;;;10.14;47.41;100371.31;4951156;29;20102;-81
2021/03/29 04:40:22;;;;;;;9.68;4.97;;;;;;;10.17;47.35;100377.00;4935143;29;20302;-80
2021/03/29 04:42:48;;;;;;;8.65;4.55;;;;;;;10.15;47.47;100383.63;4961256;28;20042;-81
2021/03/29 04:45:14;;;;;;;8.07;4.70;;;;;;;10.16;47.37;100387.94;4954346;28;20030;-82
2021/03/29 04:47:39;;;;;;;10.43;5.75;;;;;;;10.16;47.77;100390.63;4954783;28;20065;-83
2021/03/29 04:50:07;;;;;;;6.25;4.15;;;;;;;10.16;47.73;100388.72;4954245;28;20050;-82
2021/03/29 04:56:16;;;;;;;4.72;3.70;;;;;;;10.17;47.84;100400.25;4974587;28;20098;-96
2021/03/29 04:58:45;;;;;;;7.28;3.75;;;;;;;10.17;47.52;100398.38;4961061;28;20066;-94
2021/03/29 05:02:09;;;;;;;7.85;4.20;;;;;;;10.17;47.17;100403.72;4943222;28;20061;-95
2021/03/29 05:04:34;;;;;;;8.27;4.38;;;;;;;10.20;47.61;100397.88;4970953;28;20134;-96
2021/03/29 05:07:17;;;;;;;5.38;3.20;;;;;;;10.21;47.01;100409.41;4959296;28;20050;-94
2021/03/29 05:09:45;;;;;;;5.78;3.65;;;;;;;10.21;47.00;100396.03;4944146;28;20031;-93
2021/03/29 05:12:25;;;;;;;4.82;3.20;;;;;;;10.23;46.96;100400.09;4942214;28;20033;-91
2021/03/29 05:15:00;;;;;;;7.07;3.88;;;;;;;10.28;47.04;100395.88;4960614;28;20511;-95
2021/03/29 05:17:26;;;;;;;7.80;4.20;;;;;;;10.38;46.63;100407.59;4958184;28;20027;-88
2021/03/29 05:19:51;;;;;;;7.68;4.28;;;;;;;10.46;45.98;100408.25;4958121;28;20029;-89
2021/03/29 05:22:17;;;;;;;5.88;3.63;;;;;;;10.51;46.07;100414.50;4956723;28;20470;-82
2021/03/29 05:24:44;;;;;;;5.32;3.33;;;;;;;10.60;45.84;100400.75;4958249;28;20031;-92
2021/03/29 05:27:09;;;;;;;3.75;2.83;;;;;;;10.66;44.93;100405.13;4941842;28;20136;-89
2021/03/29 05:29:46;;;;;;;4.10;2.95;;;;;;;10.71;45.06;100399.84;4957286;28;20027;-90
2021/03/29 05:32:15;;;;;;;5.05;3.20;;;;;;;10.77;44.81;100403.44;4957693;28;20074;-87
2021/03/29 05:34:41;;;;;;;5.22;3.28;;;;;;;10.84;44.73;100412.91;4956901;28;20022;-81
2021/03/29 05:37:08;;;;;;;4.65;3.65;;;;;;;10.89;43.80;100404.16;4949271;29;20038;-95
2021/03/29 05:39:55;;;;;;;4.65;3.28;;;;;;;10.95;44.11;100411.19;4956354;29;20472;-91
2021/03/29 05:42:22;;;;;;;3.70;2.88;;;;;;;11.01;43.77;100410.22;4940281;29;20372;-90
2021/03/29 05:44:52;;;;;;;3.80;2.22;;;;;;;11.10;43.77;100415.16;4939225;29;20031;-88
2021/03/29 05:47:17;;;;;;;4.88;2.72;;;;;;;11.11;43.16;100414.91;4938162;29;20027;-86
2021/03/29 05:49:43;;;;;;;3.90;2.58;;;;;;;11.14;43.72;100410.94;4938508;29;20443;-87
2021/03/29 05:52:09;;;;;;;5.10;3.13;;;;;;;11.22;43.90;100413.19;4937869;29;20062;-86
2021/03/29 05:54:34;;;;;;;2.85;2.30;;;;;;;11.30;43.07;100417.31;4955135;28;20090;-87
2021/03/29 05:57:00;;;;;;;4.85;2.88;;;;;;;11.33;41.73;100425.66;4957990;28;20023;-83
2021/03/29 05:59:40;;;;;;;7.53;3.60;;;;;;;11.36;42.88;100427.84;4957069;28;20042;-91
2021/03/29 06:06:17;;;;;;;6.25;3.75;;;;;;;11.44;43.42;100428.50;4899571;29;20036;-96
2021/03/29 06:08:47;;;;;;;5.40;3.05;;;;;;;11.47;42.39;100425.31;4900343;28;20533;-94
2021/03/29 06:11:26;;;;;;;5.18;2.67;;;;;;;11.57;41.88;100427.31;4957959;28;20391;-89
2021/03/29 06:14:31;;;;;;;3.38;2.58;;;;;;;11.66;40.29;100431.19;4964389;28;20036;-96
2021/03/29 06:17:36;;;;;;;2.95;2.65;;;;;;;11.75;40.01;100427.00;4946676;28;20030;-89
2021/03/29 06:20:04;;;;;;;3.42;2.85;;;;;;;11.83;40.30;100425.75;4955601;28;20027;-89
2021/03/29 06:22:36;;;;;;;5.57;2.97;;;;;;;11.88;41.32;100438.41;4957494;28;20050;-89
2021/03/29 06:25:07;;;;;;;6.10;3.53;;;;;;;11.95;39.97;100436.34;4956418;28;20270;-86
2021/03/29 06:27:42;;;;;;;3.95;3.00;;;;;;;11.98;40.10;100433.19;4956505;28;20110;-83
2021/03/29 06:30:10;;;;;;;6.47;3.55;;;;;;;12.00;41.07;100439.94;4956628;28;20073;-83
2021/03/29 06:32:36;;;;;;;;;;;;;;;12.03;41.53;100438.59;4957125;28;20027;-85
2021/03/29 06:35:14;;;;;;;6.68;2.83;;;;;;;12.01;41.77;100438.03;4956631;28;19906;-86
2021/03/29 06:37:39;;;;;;;6.88;3.05;;;;;;;12.03;41.97;100453.91;4956348;28;20049;-84
2021/03/29 06:40:09;;;;;;;5.95;3.33;;;;;;;12.02;41.68;100447.72;4956532;28;20487;-85
2021/03/29 06:42:35;;;;;;;4.47;3.30;;;;;;;12.05;41.83;100441.84;4956788;28;20034;-96
2021/03/29 06:45:15;;;;;;;5.93;2.28;;;;;;;12.01;41.65;100441.56;4956705;28;20114;-85
2021/03/29 06:47:43;;;;;;;4.85;2.92;;;;;;;12.06;41.21;100438.13;4941295;29;20046;-83
2021/03/29 06:50:28;;;;;;;5.20;3.05;;;;;;;12.13;41.80;100452.16;4951852;28;20446;-85
2021/03/29 06:52:54;;;;;;;3.53;2.72;;;;;;;12.06;40.39;100456.06;4949065;29;20043;-85
2021/03/29 06:55:26;;;;;;;6.20;3.22;;;;;;;12.11;41.75;100453.47;4936920;29;20034;-84
2021/03/29 06:57:59;;;;;;;5.25;3.05;;;;;;;12.25;42.20;100457.34;4936762;29;20027;-88
2021/03/29 07:00:33;;;;;;;6.80;3.38;;;;;;;12.31;40.64;100453.66;4936738;29;20492;-86
2021/03/29 07:03:01;;;;;;;4.60;3.28;;;;;;;12.35;38.89;100456.63;4937061;29;20039;-87
2021/03/29 07:05:27;;;;;;;8.65;4.57;;;;;;;12.39;40.54;100457.78;4943622;28;20023;-87
2021/03/29 07:07:53;;;;;;;5.85;3.33;;;;;;;12.53;38.97;100446.63;4956114;28;20085;-88
2021/03/29 07:10:19;;;;;;;6.20;3.80;;;;;;;12.69;38.69;100448.38;4955221;28;20023;-86
2021/03/29 07:12:45;;;;;;;4.22;3.20;;;;;;;12.92;39.71;100449.91;4956093;28;20500;-85
2021/03/29 07:15:12;;;;;;;5.10;2.83;;;;;;;13.08;38.42;100447.34;4955506;28;20031;-85
2021/03/29 07:17:40;;;;;;;7.40;2.97;;;;;;;13.21;37.67;100452.25;4955862;28;20685;-86
2021/03/29 07:20:09;;;;;;;2.45;2.20;;;;;;;13.32;35.10;100439.69;4955748;28;20062;-88
2021/03/29 07:22:35;;;;;;;;;;;;;;;13.44;35.54;100453.78;4955828;28;20031;-77
2021/03/29 07:25:05;;;;;;;2.83;2.28;;;;;;;13.57;35.58;100455.19;4955693;28;19918;-89
2021/03/29 07:27:34;;;;;;;4.40;2.65;;;;;;;13.80;35.13;100458.50;4955210;28;20085;-92
2021/03/29 07:30:00;;;;;;;3.88;2.30;;;;;;;13.88;36.74;100451.84;4967536;28;20041;-83
2021/03/29 07:32:38;;;;;;;4.05;2.25;;;;;;;13.98;34.43;100445.69;4954020;28;20026;-87
2021/03/29 07:35:06;;;;;;;2.72;2.20;;;;;;;14.05;35.25;100443.56;4946861;28;20410;-89
2021/03/29 07:37:33;;;;;;;3.10;2.77;;;;;;;14.16;34.62;100436.28;4946407;28;20316;-89
2021/03/29 07:40:00;;;;;;;3.10;1.70;;;;;;;14.31;34.09;100447.09;4951612;29;20132;-94
2021/03/29 07:42:25;;;;;;;6.18;2.45;;;;;;;14.31;34.63;100443.63;4936648;29;20086;-88
2021/03/29 07:44:50;;;;;;;2.30;1.50;;;;;;;14.21;32.95;100430.94;4937418;29;20027;-93
2021/03/29 07:47:45;;;;;;;4.43;2.20;;;;;;;14.14;33.05;100439.25;4936123;29;20038;-88
2021/03/29 07:50:15;;;;;;;3.35;1.88;;;;;;;14.03;32.82;100435.72;4935969;28;20411;-87
2021/03/29 07:52:43;;;;;;;4.70;2.22;;;;;;;13.98;33.16;100426.84;4955483;28;20492;-92
2021/03/29 07:55:18;;;;;;;2.33;1.83;;;;;;;14.07;33.41;100433.31;4955714;28;20023;-86
2021/03/29 07:57:44;;;;;;;7.47;1.80;;;;;;;14.14;33.54;100439.25;4950177;29;20031;-89
2021/03/29 08:00:29;;;;;;;4.32;1.98;;;;;;;14.23;33.48;100437.69;4936758;29;20062;-89
2021/03/29 08:02:59;;;;;;;3.05;2.08;;;;;;;14.37;32.70;100443.34;4937430;29;20391;-91
2021/03/29 08:05:43;;;;;;;2.92;1.90;;;;;;;14.50;32.68;100442.03;4944974;28;20383;-92
2021/03/29 08:08:24;;;;;;;5.38;2.28;;;;;;;14.45;31.74;100435.81;4955534;28;20038;-93
2021/03/29 08:11:00;;;;;;;2.97;2.28;;;;;;;14.34;32.63;100438.50;4955734;28;20022;-94
2021/03/29 08:13:43;;;;;;;1.83;1.73;;;;;;;14.29;31.72;100429.59;4974321;28;20038;-95
2021/03/29 08:16:14;;;;;;;5.47;2.08;;;;;;;14.14;32.21;100431.19;4951599;28;20506;-96
2021/03/29 08:19:11;;;;;;;3.40;2.92;;;;;;;14.08;32.46;100432.25;4948211;28;20022;-94
2021/03/29 08:21:50;;;;;;;4.25;1.90;;;;;;;14.04;32.69;100440.03;4954813;28;20026;-94
2021/03/29 08:24:29;;;;;;;3.72;2.50;;;;;;;14.08;32.67;100434.94;4955321;28;20106;-93
2021/03/29 08:26:59;;;;;;;4.22;2.45;;;;;;;14.13;33.14;100432.25;4955569;28;20027;-94
2021/03/29 08:29:33;;;;;;;2.78;2.03;;;;;;;14.01;32.53;100435.22;4955861;28;20026;-96
2021/03/29 08:32:13;;;;;;;3.15;2.10;;;;;;;13.93;32.79;100425.75;4955641;28;20027;-95
2021/03/29 08:34:52;;;;;;;2.75;2.13;;;;;;;14.00;32.78;100430.91;4955800;28;20030;-94
2021/03/29 08:37:40;;;;;;;4.03;2.47;;;;;;;14.07;33.13;100426.06;4954762;28;20030;-84
2021/03/29 08:40:16;;;;;;;5.13;3.10;;;;;;;14.11;32.79;100430.91;4954919;28;20117;-81
2021/03/29 08:42:45;;;;;;;9.05;5.15;;;;;;;14.20;33.24;100421.25;4954818;28;20025;-84
2021/03/29 08:45:14;;;;;;;7.53;3.65;;;;;;;14.32;34.08;100424.50;4954440;28;20450;-78
2021/03/29 08:47:44;;;;;;;4.57;2.40;;;;;;;14.43;32.13;100433.41;4952351;28;20115;-82
2021/03/29 08:50:14;;;;;;;4.10;2.40;;;;;;;14.44;31.99;100432.34;4954127;28;20058;-80
2021/03/29 08:52:47;;;;;;;4.03;2.55;;;;;;;14.41;31.86;100420.22;4954113;28;20488;-80
2021/03/29 08:55:17;;;;;;;4.90;1.98;;;;;;;14.43;31.26;100428.03;4954624;28;20026;-80
2021/03/29 08:57:45;;;;;;;2.80;2.20;;;;;;;14.45;31.77;100419.66;4954411;28;20037;-80
2021/03/29 09:00:14;;;;;;;3.43;2.57;;;;;;;14.40;31.43;100415.09;4954469;28;20451;-80
2021/03/29 09:02:40;;;;;;;4.45;2.58;;;;;;;14.40;31.87;100410.53;4954309;28;20386;-81
2021/03/29 09:05:08;;;;;;;1.77;1.67;;;;;;;14.39;32.49;100416.97;4954674;28;20031;-79
2021/03/29 09:07:40;;;;;;;4.03;2.78;;;;;;;14.41;32.15;100417.53;4954362;28;20089;-79
2021/03/29 09:10:36;;;;;;;4.35;2.10;;;;;;;14.43;31.70;100419.13;4954587;28;20038;-82
2021/03/29 09:13:05;;;;;;;4.90;2.35;;;;;;;14.34;31.76;100411.59;4934353;28;20507;-81
2021/03/29 09:15:36;;;;;;;8.00;2.42;;;;;;;14.32;31.63;100399.47;4954253;28;20081;-81
2021/03/29 09:18:10;;;;;;;4.28;1.83;;;;;;;14.31;30.67;100405.94;4954345;28;20019;-81
2021/03/29 09:20:40;;;;;;;4.82;2.40;;;;;;;14.34;32.37;100403.53;4954238;28;20534;-80
2021/03/29 09:23:08;;;;;;;3.97;1.77;;;;;;;14.39;31.38;100394.63;4954351;28;20111;-81
2021/03/29 09:25:38;;;;;;;3.78;1.40;;;;;;;14.44;31.47;100393.81;4954267;28;20029;-81
2021/03/29 09:30:48;;;;;;;4.90;2.10;;;;;;;14.62;31.75;100385.22;4971820;28;20037;-80
2021/03/29 09:33:14;;;;;;;6.05;2.10;;;;;;;14.77;31.29;100395.22;4954404;28;20078;-79
2021/03/29 09:35:40;;;;;;;4.57;1.88;;;;;;;14.92;31.33;100385.50;4954102;28;20031;-80
2021/03/29 09:38:05;;;;;;;3.83;2.38;;;;;;;15.01;30.41;100384.69;4954218;28;20019;-81
2021/03/29 09:40:36;;;;;;;4.47;1.70;;;;;;;15.19;30.01;100379.78;4954026;28;20030;-81
2021/03/29 09:43:03;;;;;;;2.28;1.90;;;;;;;15.32;29.87;100386.50;4954705;28;20022;-80
2021/03/29 09:45:30;;;;;;;3.60;1.80;;;;;;;15.42;29.25;100383.75;4957425;28;20460;-80
2021/03/29 09:48:06;;;;;;;2.63;1.95;;;;;;;15.48;28.93;100379.94;4957724;28;20023;-80
2021/03/29 09:50:43;;;;;;;2.20;1.50;;;;;;;15.56;30.08;100372.38;4957163;28;20062;-80
2021/03/29 09:53:13;;;;;;;2.25;1.55;;;;;;;15.64;29.27;100363.72;4957216;28;20463;-80
2021/03/29 09:55:54;;;;;;;3.92;2.03;;;;;;;15.60;28.64;100354.53;4957296;28;20069;-79
2021/03/29 09:58:45;;;;;;;1.95;1.75;;;;;;;15.63;29.63;100356.69;4957220;28;20030;-80
2021/03/29 10:01:18;;;;;;;3.13;1.58;;;;;;;15.62;29.04;100358.56;4945873;28;20043;-80
2021/03/29 10:04:00;;;;;;;4.75;1.90;;;;;;;15.63;29.68;100356.69;4957119;28;20038;-80
2021/03/29 10:06:30;;;;;;;2.03;1.70;;;;;;;15.65;28.75;100343.75;4956820;28;20037;-80
2021/03/29 10:09:04;;;;;;;2.60;1.60;;;;;;;15.65;29.00;100351.84;4957198;28;20423;-80
2021/03/29 10:11:49;;;;;;;2.20;1.90;;;;;;;15.56;29.07;100351.59;4956853;28;20122;-80
2021/03/29 10:14:16;;;;;;;5.55;2.45;;;;;;;15.51;29.66;100344.34;4957197;28;20022;-79
2021/03/29 10:16:51;;;;;;;3.70;1.90;;;;;;;15.52;28.20;100348.63;4956986;28;20018;-78
2021/03/29 10:19:19;;;;;;;3.67;2.15;;;;;;;15.36;28.43;100329.03;4956978;28;20023;-80
2021/03/29 10:22:12;;;;;;;2.63;1.98;;;;;;;15.32;28.93;100344.16;4956607;28;20053;-81
2021/03/29 10:24:57;;;;;;;5.57;2.90;;;;;;;15.21;28.97;100340.69;4956703;28;20038;-80
2021/03/29 10:27:23;;;;;;;4.65;2.50;;;;;;;15.13;30.58;100338.56;4956750;28;20464;-80
2021/03/29 10:29:49;;;;;;;2.60;2.40;;;;;;;15.15;30.99;100336.41;4956671;28;20023;-80
2021/03/29 10:32:19;;;;;;;2.83;1.65;;;;;;;15.13;30.26;100330.47;4956698;28;20034;-80
2021/03/29 10:34:47;;;;;;;3.67;2.13;;;;;;;15.17;30.68;100328.84;4956232;28;20029;-81
2021/03/29 10:37:23;;;;;;;6.05;1.80;;;;;;;15.25;31.10;100329.38;4956793;28;20022;-80
2021/03/29 10:39:49;;;;;;;2.83;1.88;;;;;;;15.28;29.76;100324.25;4956582;28;20039;-80
2021/03/29 10:42:16;;;;;;;3.40;1.90;;;;;;;15.25;29.34;100319.38;4956656;28;20411;-81
2021/03/29 10:44:42;;;;;;;7.50;2.33;;;;;;;15.29;30.01;100320.44;4956318;28;20035;-80
2021/03/29 10:47:08;;;;;;;3.70;1.60;;;;;;;15.39;28.93;100318.78;4956313;28;20204;-80
2021/03/29 10:49:33;;;;;;;2.15;1.85;;;;;;;15.30;28.88;100310.47;4956290;28;20034;-79
2021/03/29 10:51:59;;;;;;;1.83;1.67;;;;;;;15.24;30.32;100311.59;4956240;28;20074;-80
2021/03/29 10:54:24;;;;;;;3.60;2.33;;;;;;;15.31;29.82;100307.50;4955895;28;20648;-80
2021/03/29 10:56:50;;;;;;;4.53;1.95;;;;;;;15.34;30.16;100298.88;4956461;28;20435;-80
2021/03/29 10:59:15;;;;;;;1.95;1.55;;;;;;;15.31;30.02;100307.50;4956250;28;20652;-80
2021/03/29 11:01:41;;;;;;;2.70;1.85;;;;;;;15.30;30.36;100294.31;4956084;28;20030;-79
2021/03/29 11:04:06;;;;;;;2.58;2.13;;;;;;;15.26;29.20;100293.22;4956296;28;20122;-79
2021/03/29 11:06:31;;;;;;;3.67;1.98;;;;;;;15.23;29.38;100283.81;4955932;28;20514;-80
2021/03/29 11:08:57;;;;;;;3.95;2.40;;;;;;;15.15;28.99;100285.22;4956234;28;20027;-80
2021/03/29 11:11:22;;;;;;;2.05;1.70;;;;;;;15.10;29.56;100289.81;4956115;28;20034;-79
2021/03/29 11:13:48;;;;;;;2.58;1.48;;;;;;;15.00;29.35;100286.09;4956029;28;20030;-79
2021/03/29 11:16:14;;;;;;;2.13;1.92;;;;;;;14.92;29.25;100267.78;4955988;28;20391;-80
2021/03/29 11:18:40;;;;;;;1.98;1.70;;;;;;;14.96;30.29;100263.44;4955606;28;20014;-80
2021/03/29 11:21:06;;;;;;;3.72;2.15;;;;;;;15.03;30.16;100261.28;4955899;28;20139;-79
2021/03/29 11:23:32;;;;;;;3.63;1.55;;;;;;;15.15;30.50;100247.47;4955722;28;20029;-79
2021/03/29 11:25:57;;;;;;;3.83;1.85;;;;;;;15.24;30.57;100260.38;4955721;28;20030;-80
2021/03/29 11:28:22;;;;;;;4.63;1.95;;;;;;;15.32;29.43;100255.22;4955772;28;20022;-80
2021/03/29 11:30:49;;;;;;;2.45;1.70;;;;;;;15.42;29.10;100253.56;4955481;28;20476;-79
2021/03/29 11:33:14;;;;;;;3.33;1.73;;;;;;;15.53;27.81;100238.94;4955649;28;20027;-79
2021/03/29 11:35:40;;;;;;;2.70;1.88;;;;;;;15.51;28.80;100231.13;4955394;28;20041;-80
2021/03/29 11:38:05;;;;;;;2.30;1.60;;;;;;;15.61;29.18;100222.16;4955511;28;20113;-80
2021/03/29 11:40:31;;;;;;;2.63;2.00;;;;;;;15.65;27.62;100225.91;4955338;28;20074;-79
2021/03/29 11:42:56;;;;;;;2.05;1.27;;;;;;;15.59;28.15;100218.13;4955642;28;20411;-80
2021/03/29 11:45:22;;;;;;;2.42;1.50;;;;;;;15.65;28.25;100217.00;4954871;28;20472;-80
2021/03/29 11:47:47;;;;;;;3.55;1.60;;;;;;;15.66;28.73;100213.19;4955366;28;20147;-80
2021/03/29 11:50:14;;;;;;;2.55;1.60;;;;;;;15.71;28.84;100210.50;4955199;28;20122;-80
2021/03/29 11:52:43;;;;;;;2.03;1.50;;;;;;;15.80;29.26;100203.38;4954329;28;20440;-80
2021/03/29 11:55:09;;;;;;;2.17;1.60;;;;;;;15.85;28.24;100194.47;4954835;28;20042;-80
2021/03/29 11:57:37;;;;;;;3.15;1.58;;;;;;;15.93;28.75;100193.88;4949129;28;20030;-79
2021/03/29 12:00:06;;;;;;;4.77;2.03;;;;;;;16.04;28.66;100200.00;4955413;28;20047;-80
2021/03/29 12:02:37;;;;;;;1.88;1.30;;;;;;;16.13;28.36;100197.47;4937545;29;20388;-80
2021/03/29 12:05:14;;;;;;;2.63;1.50;;;;;;;16.17;28.96;100190.41;4935972;28;20027;-80
2021/03/29 12:07:53;;;;;;;2.10;1.30;;;;;;;16.26;27.31;100175.22;4935306;29;20026;-80
2021/03/29 12:13:03;;;;;;;1.58;1.48;;;;;;;16.26;27.16;100172.50;4957095;28;20026;-85
2021/03/29 12:15:29;;;;;;;5.10;1.98;;;;;;;16.12;27.15;100155.38;4943662;29;20043;-80
2021/03/29 12:17:56;;;;;;;2.90;1.52;;;;;;;16.06;27.69;100156.53;4938789;28;20023;-88
2021/03/29 12:20:22;;;;;;;2.70;1.42;;;;;;;15.95;27.55;100155.81;4954708;28;20668;-84
2021/03/29 12:22:49;;;;;;;2.75;1.45;;;;;;;15.93;27.16;100160.69;4954144;28;20027;-89
2021/03/29 12:25:18;;;;;;;3.28;1.50;;;;;;;15.94;27.20;100162.31;4954491;28;20039;-87